createdAt,value
2018-08-17T00:02:07.847Z,98103.34
2018-08-17T00:04:36.529Z,98094.49
2018-08-17T00:07:05.067Z,98097.07
2018-08-17T00:09:33.582Z,98097.96
2018-08-17T00:12:02.063Z,98097.30
2018-08-17T00:14:45.186Z,98092.98
2018-08-17T00:17:13.710Z,98089.66
2018-08-17T00:19:42.167Z,98093.34
2018-08-17T00:22:10.615Z,98089.37
2018-08-17T00:24:39.068Z,98089.06
2018-08-17T00:27:07.545Z,98087.42
2018-08-17T00:29:36.006Z,98085.45
2018-08-17T00:32:04.460Z,98085.82
2018-08-17T00:34:32.887Z,98094.86
2018-08-17T00:37:01.333Z,98097.88
2018-08-17T00:39:29.759Z,98088.68
2018-08-17T00:41:58.259Z,98090.88
2018-08-17T00:44:26.743Z,98091.70
2018-08-17T00:46:55.167Z,98093.55
2018-08-17T00:49:23.610Z,98094.57
2018-08-17T00:51:52.036Z,98096.56
2018-08-17T00:54:20.862Z,98098.08
2018-08-17T00:56:49.291Z,98100.44
2018-08-17T00:59:17.735Z,98097.41
2018-08-17T01:01:46.240Z,98097.27
2018-08-17T01:04:14.690Z,98093.97
2018-08-17T01:06:43.122Z,98093.78
2018-08-17T01:09:11.843Z,98091.77
2018-08-17T01:11:40.274Z,98088.58
2018-08-17T01:14:08.765Z,98089.11
2018-08-17T01:16:37.193Z,98088.27
2018-08-17T01:19:05.699Z,98087.28
2018-08-17T01:21:34.163Z,98084.28
2018-08-17T01:24:02.932Z,98083.43
2018-08-17T01:26:31.610Z,98075.61
2018-08-17T01:29:00.090Z,98062.95
2018-08-17T01:31:28.543Z,98069.93
2018-08-17T01:33:56.971Z,98067.62
2018-08-17T01:36:25.383Z,98068.27
2018-08-17T01:38:53.836Z,98068.62
2018-08-17T01:41:22.256Z,98068.62
2018-08-17T01:43:50.668Z,98066.30
2018-08-17T01:46:19.050Z,98064.25
2018-08-17T01:48:47.519Z,98066.92
2018-08-17T01:51:16.114Z,98067.23
2018-08-17T01:53:44.503Z,98062.88
2018-08-17T01:56:12.969Z,98067.39
2018-08-17T01:58:41.395Z,98061.73
2018-08-17T02:01:10.205Z,98065.72
2018-08-17T02:03:38.675Z,98067.72
2018-08-17T02:06:07.096Z,98061.05
2018-08-17T02:08:35.582Z,98068.17
2018-08-17T02:11:04.060Z,98064.80
2018-08-17T02:13:32.551Z,98066.12
2018-08-17T02:16:01.194Z,98063.02
2018-08-17T02:18:29.653Z,98066.14
2018-08-17T02:20:58.136Z,98068.52
2018-08-17T02:23:26.578Z,98072.01
2018-08-17T02:25:55.012Z,98067.89
2018-08-17T02:28:23.626Z,98064.16
2018-08-17T02:30:52.078Z,98070.81
2018-08-17T02:33:20.571Z,98072.58
2018-08-17T02:35:49.064Z,98073.42
2018-08-17T02:38:17.795Z,98072.38
2018-08-17T02:40:46.247Z,98071.83
2018-08-17T02:43:14.724Z,98067.41
2018-08-17T02:45:43.189Z,98068.88
2018-08-17T02:48:11.706Z,98069.55
2018-08-17T02:50:40.388Z,98064.94
2018-08-17T02:53:09.294Z,98064.63
2018-08-17T02:55:37.696Z,98066.73
2018-08-17T02:58:06.378Z,98074.70
2018-08-17T03:00:34.845Z,98067.70
2018-08-17T03:03:03.292Z,98064.49
2018-08-17T03:05:31.725Z,98070.66
2018-08-17T03:08:00.173Z,98068.73
2018-08-17T03:10:28.787Z,98070.47
2018-08-17T03:12:57.550Z,98069.84
2018-08-17T03:15:25.975Z,98065.58
2018-08-17T03:17:54.419Z,98073.08
2018-08-17T03:20:22.879Z,98075.55
2018-08-17T03:22:51.746Z,98069.89
2018-08-17T03:25:20.179Z,98067.78
2018-08-17T03:27:48.612Z,98071.66
2018-08-17T03:30:17.026Z,98068.61
2018-08-17T03:32:45.468Z,98071.32
2018-08-17T03:35:13.955Z,98060.61
2018-08-17T03:37:42.408Z,98067.72
2018-08-17T03:40:10.884Z,98063.98
2018-08-17T03:42:39.292Z,98074.38
2018-08-17T03:45:07.761Z,98074.31
2018-08-17T03:47:36.198Z,98073.78
2018-08-17T03:50:06.269Z,98054.30
2018-08-17T03:52:34.732Z,98076.62
2018-08-17T03:55:03.213Z,98075.13
2018-08-17T03:57:31.980Z,98075.22
2018-08-17T04:00:00.500Z,98073.37
2018-08-17T04:02:28.911Z,98076.66
2018-08-17T04:04:57.802Z,98077.86
2018-08-17T04:07:26.366Z,98074.92
2018-08-17T04:09:54.798Z,98086.55
2018-08-17T04:12:23.301Z,98086.07
2018-08-17T04:14:51.782Z,98094.17
2018-08-17T04:17:20.279Z,98097.81
2018-08-17T04:19:48.703Z,98100.69
2018-08-17T04:22:17.435Z,98096.00
2018-08-17T04:24:45.870Z,98101.54
2018-08-17T04:27:15.316Z,98108.50
2018-08-17T04:29:43.793Z,98110.58
2018-08-17T04:32:12.228Z,98112.44
2018-08-17T04:34:40.604Z,98114.84
2018-08-17T04:37:09.134Z,98108.47
2018-08-17T04:39:37.587Z,98116.98
2018-08-17T04:42:06.052Z,98116.98
2018-08-17T04:44:34.451Z,98122.24
2018-08-17T04:47:02.917Z,98124.83
2018-08-17T04:49:31.338Z,98126.30
2018-08-17T04:52:00.110Z,98120.87
2018-08-17T04:54:28.603Z,98128.66
2018-08-17T04:56:57.079Z,98130.68
2018-08-17T04:59:25.518Z,98124.75
2018-08-17T05:01:54.066Z,98116.44
2018-08-17T05:04:22.515Z,98125.45
2018-08-17T05:06:50.958Z,98124.80
2018-08-17T05:09:19.382Z,98122.69
2018-08-17T05:11:47.817Z,98125.16
2018-08-17T05:14:16.271Z,98125.83
2018-08-17T05:16:44.741Z,98128.19
2018-08-17T05:19:13.347Z,98123.55
2018-08-17T05:21:41.786Z,98129.11
2018-08-17T05:24:10.311Z,98128.80
2018-08-17T05:26:38.751Z,98125.45
2018-08-17T05:29:07.307Z,98131.13
2018-08-17T05:31:35.772Z,98129.98
2018-08-17T05:34:04.213Z,98118.96
2018-08-17T05:36:32.674Z,98125.80
2018-08-17T05:39:01.135Z,98126.28
2018-08-17T05:41:29.540Z,98127.27
2018-08-17T05:43:58.126Z,98127.44
2018-08-17T05:46:26.692Z,98128.28
2018-08-17T05:48:55.177Z,98135.79
2018-08-17T05:51:23.648Z,98132.88
2018-08-17T05:53:52.101Z,98138.88
2018-08-17T05:56:20.631Z,98135.73
2018-08-17T05:58:49.482Z,98145.55
2018-08-17T06:01:18.506Z,98150.88
2018-08-17T06:03:47.035Z,98145.09
2018-08-17T06:06:15.475Z,98148.88
2018-08-17T06:08:43.950Z,98153.17
2018-08-17T06:11:12.553Z,98148.61
2018-08-17T06:13:40.878Z,98146.59
2018-08-17T06:16:09.749Z,98146.19
2018-08-17T06:18:38.242Z,98143.47
2018-08-17T06:21:06.767Z,98149.01
2018-08-17T06:23:35.257Z,98150.88
2018-08-17T06:26:03.917Z,98154.89
2018-08-17T06:28:32.347Z,98155.34
2018-08-17T06:31:00.821Z,98158.27
2018-08-17T06:33:29.330Z,98161.23
2018-08-17T06:35:57.822Z,98160.42
2018-08-17T06:38:26.267Z,98166.35
2018-08-17T06:40:54.739Z,98155.50
2018-08-17T06:43:23.167Z,98159.52
2018-08-17T06:45:51.650Z,98154.02
2018-08-17T06:48:20.060Z,98155.84
2018-08-17T06:50:48.638Z,98155.63
2018-08-17T06:53:17.012Z,98159.34
2018-08-17T06:55:45.711Z,98158.28
2018-08-17T06:58:14.234Z,98161.64
2018-08-17T07:00:42.612Z,98153.34
2018-08-17T07:03:11.062Z,98161.73
2018-08-17T07:05:39.521Z,98160.21
2018-08-17T07:08:07.946Z,98154.41
2018-08-17T07:10:36.432Z,98149.21
2018-08-17T07:13:04.844Z,98155.59
2018-08-17T07:15:33.344Z,98151.58
2018-08-17T07:18:01.878Z,98156.50
2018-08-17T07:20:30.294Z,98156.11
2018-08-17T07:22:58.748Z,98155.77
2018-08-17T07:25:27.147Z,98165.16
2018-08-17T07:27:55.632Z,98164.72
2018-08-17T07:30:24.136Z,98164.07
2018-08-17T07:32:52.615Z,98171.47
2018-08-17T07:35:21.042Z,98163.72
2018-08-17T07:37:49.454Z,98162.26
2018-08-17T07:40:17.924Z,98142.80
2018-08-17T07:42:46.388Z,98171.62
2018-08-17T07:45:15.101Z,98168.27
2018-08-17T07:47:43.528Z,98166.02
2018-08-17T07:50:17.077Z,98167.79
2018-08-17T07:52:46.099Z,98166.54
2018-08-17T07:55:14.741Z,98164.17
2018-08-17T07:57:43.163Z,98166.41
2018-08-17T08:00:12.422Z,98175.51
2018-08-17T08:02:40.903Z,98169.73
2018-08-17T08:05:10.561Z,98174.66
2018-08-17T08:07:39.492Z,98175.89
2018-08-17T08:10:08.866Z,98179.05
2018-08-17T08:12:37.488Z,98178.92
2018-08-17T08:15:06.504Z,98179.44
2018-08-17T08:17:34.957Z,98187.50
2018-08-17T08:20:14.454Z,98182.00
2018-08-17T08:22:43.212Z,98176.61
2018-08-17T08:25:11.639Z,98178.88
2018-08-17T08:27:40.080Z,98181.88
2018-08-17T08:30:09.062Z,98175.73
2018-08-17T08:32:37.711Z,98178.28
2018-08-17T08:35:07.112Z,98175.38
2018-08-17T08:37:35.626Z,98172.47
2018-08-17T08:40:04.447Z,98173.69
2018-08-17T08:42:32.892Z,98171.94
2018-08-17T08:45:01.292Z,98172.25
2018-08-17T08:47:29.986Z,98167.30
2018-08-17T08:49:58.481Z,98175.33
2018-08-17T08:52:26.991Z,98178.14
2018-08-17T08:54:55.474Z,98185.00
2018-08-17T08:57:23.883Z,98178.98
2018-08-17T08:59:52.368Z,98182.18
2018-08-17T09:02:21.208Z,98185.61
2018-08-17T09:04:49.640Z,98177.64
2018-08-17T09:07:18.121Z,98178.98
2018-08-17T09:09:46.575Z,98182.81
2018-08-17T09:12:15.108Z,98181.41
2018-08-17T09:14:43.551Z,98181.98
2018-08-17T09:17:12.053Z,98178.78
2018-08-17T09:19:40.770Z,98184.58
2018-08-17T09:22:09.172Z,98178.52
2018-08-17T09:24:37.724Z,98176.45
2018-08-17T09:27:06.652Z,98173.40
2018-08-17T09:29:35.408Z,98174.14
2018-08-17T09:32:03.859Z,98174.85
2018-08-17T09:34:32.275Z,98177.55
2018-08-17T09:37:00.725Z,98170.02
2018-08-17T09:39:29.170Z,98167.08
2018-08-17T09:41:57.804Z,98167.77
2018-08-17T09:44:26.650Z,98166.93
2018-08-17T09:46:55.394Z,98158.94
2018-08-17T09:49:23.802Z,98152.78
2018-08-17T09:51:52.483Z,98157.61
2018-08-17T09:54:20.896Z,98149.83
2018-08-17T09:56:49.656Z,98152.98
2018-08-17T09:59:18.117Z,98149.13
2018-08-17T10:01:51.747Z,98148.75
2018-08-17T10:04:25.303Z,98156.09
2018-08-17T10:06:59.037Z,98155.72
2018-08-17T10:09:32.963Z,98155.55
2018-08-17T10:12:01.439Z,98156.84
2018-08-17T10:14:29.914Z,98158.22
2018-08-17T10:16:58.309Z,98156.11
2018-08-17T10:19:26.775Z,98151.85
2018-08-17T10:21:56.175Z,98152.45
2018-08-17T10:24:25.032Z,98153.91
2018-08-17T10:26:54.367Z,98152.02
2018-08-17T10:29:23.441Z,98153.16
2018-08-17T10:31:52.193Z,98152.20
2018-08-17T10:34:21.024Z,98155.17
2018-08-17T10:36:49.494Z,98151.56
2018-08-17T10:39:17.954Z,98142.98
2018-08-17T10:41:46.417Z,98147.94
2018-08-17T10:44:14.836Z,98151.23
2018-08-17T10:46:43.551Z,98142.36
2018-08-17T10:49:12.103Z,98139.94
2018-08-17T10:51:40.511Z,98139.55
2018-08-17T10:54:08.944Z,98147.68
2018-08-17T10:56:37.365Z,98135.59
2018-08-17T10:59:05.856Z,98132.31
2018-08-17T11:01:34.535Z,98131.78
2018-08-17T11:04:02.956Z,98131.50
2018-08-17T11:06:31.443Z,98129.45
2018-08-17T11:09:00.404Z,98125.89
2018-08-17T11:11:28.869Z,98129.45
2018-08-17T11:13:57.652Z,98130.45
2018-08-17T11:16:26.060Z,98125.11
2018-08-17T11:18:54.509Z,98129.80
2018-08-17T11:21:22.942Z,98131.24
2018-08-17T11:23:51.607Z,98128.64
2018-08-17T11:26:20.154Z,98127.77
2018-08-17T11:28:48.589Z,98124.81
2018-08-17T11:31:17.080Z,98119.75
2018-08-17T11:33:45.534Z,98123.27
2018-08-17T11:36:14.139Z,98124.98
2018-08-17T11:38:42.553Z,98124.58
2018-08-17T11:41:12.207Z,98126.42
2018-08-17T11:43:40.688Z,98116.23
2018-08-17T11:46:09.333Z,98116.00
2018-08-17T11:48:38.473Z,98107.69
2018-08-17T11:51:07.035Z,98108.02
2018-08-17T11:53:35.670Z,98116.48
2018-08-17T11:56:04.105Z,98119.36
2018-08-17T11:58:32.512Z,98115.52
2018-08-17T12:01:01.058Z,98114.37
2018-08-17T12:03:29.658Z,98113.78
2018-08-17T12:05:58.115Z,98111.68
2018-08-17T12:08:26.617Z,98108.75
2018-08-17T12:11:03.197Z,98106.61
2018-08-17T12:13:31.654Z,98104.67
2018-08-17T12:16:00.192Z,98108.38
2018-08-17T12:18:28.745Z,98107.16
2018-08-17T12:20:57.155Z,98105.42
2018-08-17T12:23:25.856Z,98102.54
2018-08-17T12:25:55.992Z,98105.34
2018-08-17T12:28:25.867Z,98104.53
2018-08-17T12:30:54.299Z,98103.47
2018-08-17T12:33:22.714Z,98105.69
2018-08-17T12:35:51.174Z,98098.92
2018-08-17T12:38:19.746Z,98102.87
2018-08-17T12:40:52.548Z,98105.81
2018-08-17T12:43:24.636Z,98104.31
2018-08-17T12:45:53.360Z,98095.55
2018-08-17T12:48:21.792Z,98098.03
2018-08-17T12:50:50.420Z,98097.71
2018-08-17T12:53:18.883Z,98094.17
2018-08-17T12:55:47.334Z,98091.33
2018-08-17T12:58:16.192Z,98087.23
2018-08-17T13:00:44.811Z,98086.14
2018-08-17T13:03:14.237Z,98079.93
2018-08-17T13:05:42.665Z,98080.23
2018-08-17T13:08:11.125Z,98079.38
2018-08-17T13:10:39.582Z,98078.81
2018-08-17T13:13:09.244Z,98073.08
2018-08-17T13:15:38.659Z,98074.77
2018-08-17T13:18:15.104Z,98078.02
2018-08-17T13:20:44.392Z,98079.86
2018-08-17T13:23:13.144Z,98080.75
2018-08-17T13:25:42.583Z,98074.45
2018-08-17T13:28:11.299Z,98078.91
2018-08-17T13:30:39.951Z,98075.28
2018-08-17T13:33:08.463Z,98079.78
2018-08-17T13:35:37.144Z,98072.20
2018-08-17T13:38:05.870Z,98076.03
2018-08-17T13:40:34.296Z,98071.69
2018-08-17T13:43:02.759Z,98082.12
2018-08-17T13:45:31.376Z,98088.03
2018-08-17T13:48:00.248Z,98083.28
2018-08-17T13:50:28.801Z,98082.16
2018-08-17T13:52:57.250Z,98077.38
2018-08-17T13:55:25.824Z,98067.87
2018-08-17T13:57:54.412Z,98065.97
2018-08-17T14:00:22.839Z,98063.75
2018-08-17T14:02:51.262Z,98064.00
2018-08-17T14:05:19.688Z,98067.27
2018-08-17T14:07:48.109Z,98056.59
2018-08-17T14:10:16.541Z,98047.58
2018-08-17T14:12:45.030Z,98061.66
2018-08-17T14:15:16.338Z,98054.86
2018-08-17T14:17:44.783Z,98050.30
2018-08-17T14:20:15.206Z,98050.70
2018-08-17T14:22:43.718Z,98048.04
2018-08-17T14:25:12.588Z,98042.52
2018-08-17T14:27:41.106Z,98039.48
2018-08-17T14:30:13.213Z,98041.25
2018-08-17T14:32:41.879Z,98042.12
2018-08-17T14:35:10.888Z,98031.55
2018-08-17T14:37:39.374Z,98028.78
2018-08-17T14:40:08.985Z,98037.89
2018-08-17T14:42:37.466Z,98030.55
2018-08-17T14:45:07.196Z,98036.25
2018-08-17T14:47:35.755Z,98027.39
2018-08-17T14:50:05.258Z,98036.22
2018-08-17T14:52:34.018Z,98033.46
2018-08-17T14:55:02.464Z,98029.59
2018-08-17T14:57:30.961Z,98033.08
2018-08-17T14:59:59.415Z,98020.31
2018-08-17T15:02:27.868Z,98029.96
2018-08-17T15:04:56.275Z,98026.20
2018-08-17T15:07:24.710Z,98026.45
2018-08-17T15:09:54.929Z,98016.88
2018-08-17T15:12:23.579Z,98021.52
2018-08-17T15:14:52.096Z,98019.37
2018-08-17T15:17:20.544Z,98018.92
2018-08-17T15:19:48.981Z,98022.45
2018-08-17T15:22:17.428Z,98020.09
2018-08-17T15:24:45.898Z,98018.47
2018-08-17T15:27:14.496Z,98018.33
2018-08-17T15:29:42.967Z,98017.46
2018-08-17T15:32:11.474Z,98017.58
2018-08-17T15:34:40.072Z,98027.09
2018-08-17T15:37:08.547Z,98020.02
2018-08-17T15:39:37.393Z,98024.36
2018-08-17T15:42:05.872Z,98027.99
2018-08-17T15:44:34.324Z,98025.97
2018-08-17T15:47:02.815Z,98021.75
2018-08-17T15:49:33.151Z,98017.55
2018-08-17T15:52:02.657Z,98016.71
2018-08-17T15:54:31.600Z,98019.32
2018-08-17T15:57:00.176Z,98013.95
2018-08-17T15:59:28.858Z,98018.09
2018-08-17T16:01:57.364Z,98016.47
2018-08-17T16:04:26.121Z,98017.14
2018-08-17T16:06:55.057Z,97996.46
2018-08-17T16:09:23.478Z,98015.25
2018-08-17T16:11:51.923Z,98007.91
2018-08-17T16:14:20.371Z,98007.75
2018-08-17T16:16:48.860Z,98007.51
2018-08-17T16:19:17.319Z,98005.44
2018-08-17T16:21:45.789Z,98002.45
2018-08-17T16:24:14.251Z,97999.91
2018-08-17T16:26:42.683Z,97997.89
2018-08-17T16:29:11.139Z,97993.23
2018-08-17T16:31:41.360Z,97987.41
2018-08-17T16:34:10.676Z,97996.05
2018-08-17T16:36:41.410Z,97992.42
2018-08-17T16:39:14.794Z,97996.74
2018-08-17T16:41:43.614Z,97994.73
2018-08-17T16:44:12.511Z,97992.34
2018-08-17T16:46:43.105Z,97995.40
2018-08-17T16:49:11.799Z,97998.16
2018-08-17T16:51:40.702Z,97998.55
2018-08-17T16:54:09.184Z,98002.04
2018-08-17T16:56:38.092Z,98005.98
2018-08-17T16:59:07.142Z,98002.98
2018-08-17T17:01:35.524Z,98003.92
2018-08-17T17:04:04.710Z,98008.72
2018-08-17T17:06:33.515Z,98020.74
2018-08-17T17:09:07.560Z,98017.67
2018-08-17T17:11:36.447Z,98021.77
2018-08-17T17:14:04.974Z,98024.67
2018-08-17T17:16:38.869Z,98017.47
2018-08-17T17:19:13.536Z,98020.75
2018-08-17T17:21:42.728Z,98022.39
2018-08-17T17:24:11.452Z,98020.70
2018-08-17T17:26:39.938Z,98021.35
2018-08-17T17:29:08.496Z,98021.52
2018-08-17T17:31:37.004Z,98014.47
2018-08-17T17:34:05.475Z,98017.88
2018-08-17T17:36:33.895Z,98016.76
2018-08-17T17:39:02.414Z,98013.61
2018-08-17T17:41:30.819Z,98014.39
2018-08-17T17:43:59.288Z,98016.95
2018-08-17T17:46:27.734Z,98011.99
2018-08-17T17:48:56.200Z,98014.59
2018-08-17T17:51:24.714Z,98015.24
2018-08-17T17:53:53.192Z,98015.28
2018-08-17T17:56:21.660Z,98013.20
2018-08-17T17:58:50.392Z,98019.47
2018-08-17T18:01:19.003Z,98015.78
2018-08-17T18:03:47.456Z,98016.36
2018-08-17T18:06:15.966Z,98015.97
2018-08-17T18:08:44.475Z,98020.38
2018-08-17T18:11:12.980Z,98024.08
2018-08-17T18:13:41.469Z,98028.39
2018-08-17T18:16:09.922Z,98028.69
2018-08-17T18:18:38.394Z,98034.84
2018-08-17T18:21:07.118Z,98043.31
2018-08-17T18:23:35.499Z,98044.34
2018-08-17T18:26:09.131Z,98051.50
2018-08-17T18:28:37.768Z,98054.82
2018-08-17T18:31:06.205Z,98060.77
2018-08-17T18:33:35.681Z,98057.58
2018-08-17T18:36:04.133Z,98064.58
2018-08-17T18:38:32.728Z,98070.09
2018-08-17T18:41:01.295Z,98072.20
2018-08-17T18:43:29.786Z,98079.34
2018-08-17T18:45:58.271Z,98077.98
2018-08-17T18:48:26.709Z,98084.69
2018-08-17T18:50:55.189Z,98087.35
2018-08-17T18:53:23.644Z,98090.95
2018-08-17T18:55:52.123Z,98095.36
2018-08-17T18:58:20.736Z,98100.69
2018-08-17T19:00:49.196Z,98103.20
2018-08-17T19:03:17.626Z,98099.81
2018-08-17T19:05:46.049Z,98103.86
2018-08-17T19:08:14.535Z,98101.18
2018-08-17T19:10:42.984Z,98108.98
2018-08-17T19:13:11.387Z,98105.79
2018-08-17T19:15:55.992Z,98104.84
2018-08-17T19:18:28.854Z,98105.56
2018-08-17T19:20:58.643Z,98112.17
2018-08-17T19:23:27.056Z,98107.69
2018-08-17T19:25:55.502Z,98118.77
2018-08-17T19:28:23.915Z,98117.39
2018-08-17T19:30:52.379Z,98121.09
2018-08-17T19:33:20.828Z,98124.70
2018-08-17T19:35:49.528Z,98129.88
2018-08-17T19:38:18.100Z,98128.80
2018-08-17T19:40:46.511Z,98122.99
2018-08-17T19:43:15.083Z,98122.84
2018-08-17T19:45:43.545Z,98125.42
2018-08-17T19:48:11.971Z,98114.99
2018-08-17T19:50:40.427Z,98123.25
2018-08-17T19:53:08.874Z,98122.30
2018-08-17T19:55:37.363Z,98128.43
2018-08-17T19:58:06.040Z,98128.78
2018-08-17T20:00:34.458Z,98127.27
2018-08-17T20:03:02.907Z,98119.69
2018-08-17T20:05:31.376Z,98128.55
2018-08-17T20:07:59.893Z,98131.70
2018-08-17T20:10:28.707Z,98126.62
2018-08-17T20:12:57.190Z,98127.97
2018-08-17T20:15:25.698Z,98130.66
2018-08-17T20:17:54.132Z,98132.72
2018-08-17T20:20:22.612Z,98131.30
2018-08-17T20:22:51.617Z,98129.18
2018-08-17T20:25:20.109Z,98129.02
2018-08-17T20:27:48.614Z,98128.02
2018-08-17T20:30:21.605Z,98130.36
2018-08-17T20:32:50.072Z,98128.22
2018-08-17T20:35:18.518Z,98128.08
2018-08-17T20:37:49.208Z,98131.49
2018-08-17T20:40:18.208Z,98127.02
2018-08-17T20:42:46.882Z,98140.03
2018-08-17T20:45:15.341Z,98144.39
2018-08-17T20:47:44.372Z,98146.14
2018-08-17T20:50:15.056Z,98143.16
2018-08-17T20:52:50.791Z,98152.02
2018-08-17T20:55:20.496Z,98157.94
2018-08-17T20:57:51.949Z,98157.02
2018-08-17T21:00:21.365Z,98156.36
2018-08-17T21:02:49.801Z,98154.31
2018-08-17T21:05:18.227Z,98164.80
2018-08-17T21:07:47.587Z,98176.25
2018-08-17T21:10:16.014Z,98175.28
2018-08-17T21:12:44.990Z,98167.20
2018-08-17T21:15:13.886Z,98174.16
2018-08-17T21:17:42.641Z,98174.53
2018-08-17T21:20:11.560Z,98178.16
2018-08-17T21:22:39.966Z,98181.84
2018-08-17T21:25:08.740Z,98183.05
2018-08-17T21:27:37.205Z,98183.62
2018-08-17T21:30:06.678Z,98189.34
2018-08-17T21:32:35.152Z,98187.15
2018-08-17T21:35:03.735Z,98194.83
2018-08-17T21:37:32.080Z,98190.44
2018-08-17T21:40:00.551Z,98188.55
2018-08-17T21:42:29.031Z,98185.61
2018-08-17T21:44:57.457Z,98194.27
2018-08-17T21:47:26.073Z,98198.55
2018-08-17T21:50:00.160Z,98197.11
2018-08-17T21:52:29.129Z,98200.06
2018-08-17T21:54:57.956Z,98193.59
2018-08-17T21:57:26.656Z,98207.18
2018-08-17T21:59:55.421Z,98204.95
2018-08-17T22:02:23.926Z,98209.19
2018-08-17T22:04:52.448Z,98199.77
2018-08-17T22:07:22.279Z,98206.72
2018-08-17T22:09:51.456Z,98208.06
2018-08-17T22:12:23.104Z,98204.61
2018-08-17T22:14:51.488Z,98208.55
2018-08-17T22:17:32.868Z,98211.55
2018-08-17T22:20:01.708Z,98207.49
2018-08-17T22:22:30.261Z,98208.56
2018-08-17T22:24:59.675Z,98205.17
2018-08-17T22:27:29.301Z,98209.92
2018-08-17T22:29:58.719Z,98211.23
2018-08-17T22:32:27.230Z,98223.86
2018-08-17T22:34:56.301Z,98223.86
2018-08-17T22:37:24.782Z,98218.52
2018-08-17T22:39:53.232Z,98219.00
2018-08-17T22:42:23.024Z,98223.66
2018-08-17T22:44:51.974Z,98224.99
2018-08-17T22:47:22.464Z,98226.77
2018-08-17T22:49:51.636Z,98228.30
2018-08-17T22:52:20.149Z,98229.05
2018-08-17T22:54:53.731Z,98229.20
2018-08-17T22:57:22.181Z,98230.15
2018-08-17T23:00:12.292Z,98228.85
2018-08-17T23:02:41.971Z,98236.31
2018-08-17T23:05:15.372Z,98235.89
2018-08-17T23:07:44.727Z,98227.36
2018-08-17T23:10:16.210Z,98233.47
2018-08-17T23:12:45.746Z,98240.84
2018-08-17T23:15:14.391Z,98241.84
2018-08-17T23:17:46.785Z,98238.52
2018-08-17T23:20:15.746Z,98246.39
2018-08-17T23:22:47.468Z,98244.06
2018-08-17T23:25:15.899Z,98251.25
2018-08-17T23:27:44.838Z,98259.42
2018-08-17T23:32:40.945Z,98266.98
2018-08-17T23:35:09.468Z,98263.33
2018-08-17T23:37:38.457Z,98277.06
2018-08-17T23:40:08.372Z,98271.91
2018-08-17T23:42:36.819Z,98278.59
2018-08-17T23:45:06.636Z,98284.13
2018-08-17T23:47:35.587Z,98286.45
2018-08-17T23:50:04.641Z,98282.75
2018-08-17T23:52:33.168Z,98283.75
2018-08-17T23:55:01.617Z,98289.28
2018-08-17T23:57:30.086Z,98289.30
2018-08-17T23:59:59.964Z,98292.98
